Time;durP1;ratioP1;P1;durP2;ratioP2;P2;SDS_P1;SDS_P2;PMS_P1;PMS_P2;Temp;Humidity;BMP_temperature;BMP_pressure;BME280_temperature;BME280_humidity;BME280_pressure;Samples;Min_cycle;Max_cycle;Signal;HPM_P1;HPM_P2
2024/01/10 00:01:45;;;;;;;4.77;3.30;;;;;;;-6.13;82.56;102859.50;5026092;28;20029;-62
2024/01/10 00:04:10;;;;;;;4.30;3.03;;;;;;;-6.16;82.79;102859.97;5026300;28;20075;-62
2024/01/10 00:06:36;;;;;;;4.77;2.97;;;;;;;-6.18;82.75;102856.34;5026481;28;20041;-63
2024/01/10 00:09:02;;;;;;;5.77;3.33;;;;;;;-6.20;83.16;102858.66;5026123;28;20103;-62
2024/01/10 00:11:27;;;;;;;4.70;2.97;;;;;;;-6.21;83.23;102861.00;5026259;28;20022;-62
2024/01/10 00:13:52;;;;;;;5.70;4.00;;;;;;;-6.23;82.74;102853.22;5026520;28;20155;-62
2024/01/10 00:16:18;;;;;;;5.20;3.10;;;;;;;-6.23;82.63;102849.78;5029745;28;20465;-62
2024/01/10 00:18:43;;;;;;;4.93;3.00;;;;;;;-6.26;83.36;102855.34;5029905;28;20029;-62
2024/01/10 00:21:10;;;;;;;4.30;2.80;;;;;;;-6.28;83.57;102854.22;5030220;28;20484;-63
2024/01/10 00:23:35;;;;;;;5.77;2.93;;;;;;;-6.29;83.73;102842.28;5030708;28;20021;-63
2024/01/10 00:26:00;;;;;;;7.23;3.70;;;;;;;-6.31;84.15;102842.09;5030047;28;20029;-62
2024/01/10 00:28:26;;;;;;;4.87;2.97;;;;;;;-6.33;84.59;102840.09;5029513;28;20029;-62
2024/01/10 00:30:51;;;;;;;5.13;3.10;;;;;;;-6.37;84.51;102836.25;5029733;28;20541;-62
2024/01/10 00:33:17;;;;;;;6.23;3.43;;;;;;;-6.41;85.43;102832.41;5029892;28;20183;-62
2024/01/10 00:35:42;;;;;;;4.10;3.00;;;;;;;-6.45;86.16;102834.31;5029965;28;20045;-62
2024/01/10 00:38:08;;;;;;;5.53;3.90;;;;;;;-6.47;87.02;102830.66;5029478;28;20025;-62
2024/01/10 00:40:33;;;;;;;6.27;4.43;;;;;;;-6.52;86.53;102828.47;5030317;28;20033;-62
2024/01/10 00:42:59;;;;;;;4.43;3.60;;;;;;;-6.56;86.59;102836.31;5029581;28;20029;-62
2024/01/10 00:45:24;;;;;;;7.07;4.07;;;;;;;-6.59;87.15;102835.00;5029739;28;20500;-62
2024/01/10 00:47:50;;;;;;;6.77;3.83;;;;;;;-6.63;87.44;102834.59;5029155;28;20083;-62
2024/01/10 00:50:16;;;;;;;5.83;4.17;;;;;;;-6.65;87.36;102833.47;5029786;28;20042;-62
2024/01/10 00:52:41;;;;;;;8.33;4.40;;;;;;;-6.65;87.55;102830.03;5029886;28;20057;-62
2024/01/10 00:55:07;;;;;;;7.13;4.70;;;;;;;-6.68;87.66;102824.59;5029965;28;20035;-62
2024/01/10 00:57:34;;;;;;;6.63;4.43;;;;;;;-6.69;87.98;102830.34;5029003;28;20465;-62
2024/01/10 00:59:59;;;;;;;4.97;3.93;;;;;;;-6.71;88.24;102830.09;5029507;28;20036;-62
2024/01/10 01:02:24;;;;;;;6.17;4.20;;;;;;;-6.71;88.32;102826.69;5029371;28;20075;-62
2024/01/10 01:04:49;;;;;;;5.30;3.90;;;;;;;-6.71;88.43;102829.22;5029672;28;20056;-62
2024/01/10 01:07:15;;;;;;;8.27;4.63;;;;;;;-6.72;88.43;102833.34;5029330;28;20071;-62
2024/01/10 01:09:40;;;;;;;7.43;4.13;;;;;;;-6.74;89.15;102834.75;5029871;28;20307;-61
2024/01/10 01:12:05;;;;;;;4.80;3.50;;;;;;;-6.75;88.30;102833.88;5029153;28;20032;-63
2024/01/10 01:14:31;;;;;;;4.83;3.50;;;;;;;-6.75;87.69;102826.31;5028972;28;20037;-62
2024/01/10 01:16:56;;;;;;;6.23;3.70;;;;;;;-6.72;88.19;102824.88;5029279;28;20480;-61
2024/01/10 01:19:21;;;;;;;5.63;3.37;;;;;;;-6.74;88.90;102822.16;5029519;28;20025;-62
2024/01/10 01:21:47;;;;;;;5.53;3.43;;;;;;;-6.72;88.51;102822.34;5029039;28;20329;-62
2024/01/10 01:24:12;;;;;;;4.80;3.40;;;;;;;-6.73;89.44;102828.09;5029237;28;20044;-62
2024/01/10 01:26:37;;;;;;;4.73;3.20;;;;;;;-6.76;89.55;102826.97;5028009;28;20575;-62
2024/01/10 01:29:02;;;;;;;4.47;3.07;;;;;;;-6.76;89.28;102828.59;5029330;28;20079;-62
2024/01/10 01:31:28;;;;;;;5.20;3.60;;;;;;;-6.76;89.27;102826.97;5028174;28;20024;-62
2024/01/10 01:33:53;;;;;;;7.50;3.87;;;;;;;-6.74;89.33;102824.66;5028853;28;20033;-62
2024/01/10 01:36:19;;;;;;;3.97;2.83;;;;;;;-6.75;89.22;102816.22;5028395;28;20100;-62
2024/01/10 01:38:44;;;;;;;6.40;3.13;;;;;;;-6.75;89.74;102821.25;5029209;28;20030;-61
2024/01/10 01:41:10;;;;;;;5.33;3.33;;;;;;;-6.76;90.06;102821.03;5028401;28;20423;-62
2024/01/10 01:43:35;;;;;;;6.00;3.43;;;;;;;-6.77;90.35;102815.09;5028871;28;20025;-61
2024/01/10 01:46:02;;;;;;;5.23;3.03;;;;;;;-6.79;90.26;102821.53;5027928;28;20485;-62
2024/01/10 01:48:28;;;;;;;4.40;2.93;;;;;;;-6.80;90.96;102818.81;5028827;28;20033;-62
2024/01/10 01:50:57;;;;;;;5.67;3.70;;;;;;;-6.81;90.72;102822.03;5028213;28;20030;-62
2024/01/10 01:53:23;;;;;;;5.43;3.10;;;;;;;-6.85;90.96;102814.78;5028575;28;20095;-62
2024/01/10 01:55:49;;;;;;;4.23;2.97;;;;;;;-6.87;91.24;102812.94;5028162;28;20029;-62
2024/01/10 01:58:15;;;;;;;5.23;3.23;;;;;;;-6.86;91.69;102818.91;5028334;28;20025;-62
2024/01/10 02:00:40;;;;;;;5.53;3.47;;;;;;;-6.90;92.66;102811.59;5027683;28;20044;-62
2024/01/10 02:03:08;;;;;;;6.43;3.07;;;;;;;-6.90;92.61;102810.00;5028582;28;20025;-62
2024/01/10 02:05:34;;;;;;;5.03;3.23;;;;;;;-6.92;91.84;102808.88;5028221;28;20033;-62
2024/01/10 02:07:59;;;;;;;5.23;3.23;;;;;;;-6.92;92.60;102813.00;5028668;28;20029;-62
2024/01/10 02:10:24;;;;;;;4.47;3.00;;;;;;;-6.94;92.43;102814.44;5027696;28;20048;-62
2024/01/10 02:12:50;;;;;;;6.90;3.07;;;;;;;-6.96;93.70;102805.75;5027851;28;20029;-62
2024/01/10 02:15:16;;;;;;;4.60;2.97;;;;;;;-6.99;92.55;102801.19;5027717;28;20351;-62
2024/01/10 02:17:42;;;;;;;5.47;3.03;;;;;;;-6.99;94.03;102801.19;5028492;28;20029;-61
2024/01/10 02:20:18;;;;;;;5.10;3.03;;;;;;;-6.99;94.12;102802.13;5027777;28;20059;-62
2024/01/10 02:22:43;;;;;;;5.87;3.43;;;;;;;-6.99;94.13;102798.69;5027773;28;20450;-62
2024/01/10 02:25:12;;;;;;;4.97;3.20;;;;;;;-7.01;94.52;102798.47;5027474;28;20025;-62
2024/01/10 02:27:39;;;;;;;4.63;2.70;;;;;;;-7.03;94.17;102794.84;5028009;28;20029;-62
2024/01/10 02:30:05;;;;;;;4.40;2.93;;;;;;;-7.02;94.67;102801.72;5026964;28;20029;-62
2024/01/10 02:32:31;;;;;;;5.53;3.60;;;;;;;-7.04;94.33;102793.03;5028044;28;20663;-62
2024/01/10 02:34:57;;;;;;;7.60;3.77;;;;;;;-7.04;95.51;102803.13;5027649;28;20087;-62
2024/01/10 02:37:22;;;;;;;5.27;3.47;;;;;;;-7.06;95.19;102804.50;5027426;28;20112;-62
2024/01/10 02:39:48;;;;;;;5.10;3.60;;;;;;;-7.06;95.31;102802.00;5026572;28;20037;-62
2024/01/10 02:42:13;;;;;;;4.90;3.27;;;;;;;-7.07;95.29;102797.66;5027898;28;20033;-63
2024/01/10 02:44:38;;;;;;;4.90;3.40;;;;;;;-7.06;95.80;102794.44;5027473;28;20029;-63
2024/01/10 02:47:05;;;;;;;5.17;3.10;;;;;;;-7.06;95.43;102794.44;5027562;28;20389;-63
2024/01/10 02:49:30;;;;;;;4.67;3.43;;;;;;;-7.04;96.31;102790.50;5026524;28;20048;-62
2024/01/10 02:51:55;;;;;;;4.63;3.27;;;;;;;-7.04;95.49;102780.44;5027405;28;20397;-62
2024/01/10 02:54:20;;;;;;;5.23;2.70;;;;;;;-7.05;96.09;102786.16;5027264;28;20017;-62
2024/01/10 02:56:46;;;;;;;5.00;3.30;;;;;;;-7.03;95.81;102781.31;5027336;28;20449;-62
2024/01/10 02:59:11;;;;;;;4.37;3.30;;;;;;;-7.04;96.16;102777.91;5026944;28;20091;-63
2024/01/10 03:01:36;;;;;;;7.47;3.83;;;;;;;-7.02;95.86;102773.97;5027681;28;20029;-63
2024/01/10 03:04:01;;;;;;;5.53;3.40;;;;;;;-7.02;95.93;102783.16;5027085;28;20056;-63
2024/01/10 03:06:27;;;;;;;5.60;3.10;;;;;;;-7.02;95.73;102781.53;5027121;28;20037;-63
2024/01/10 03:08:52;;;;;;;5.23;3.60;;;;;;;-7.01;95.32;102775.78;5027045;28;20052;-62
2024/01/10 03:11:18;;;;;;;5.70;3.77;;;;;;;-7.02;95.68;102773.06;5027254;28;20036;-62
2024/01/10 03:13:47;;;;;;;6.37;3.60;;;;;;;-7.01;95.93;102770.75;5026256;28;20041;-62
2024/01/10 03:16:12;;;;;;;6.20;3.70;;;;;;;-7.00;95.17;102769.13;5027255;28;20451;-62
2024/01/10 03:18:38;;;;;;;6.10;3.20;;;;;;;-7.01;94.93;102763.19;5026975;28;20112;-61
2024/01/10 03:21:03;;;;;;;5.13;3.20;;;;;;;-6.99;95.29;102760.84;5026143;28;20033;-63
2024/01/10 03:23:28;;;;;;;4.43;3.00;;;;;;;-6.98;94.87;102760.19;5027027;28;20029;-62
2024/01/10 03:25:55;;;;;;;8.10;3.47;;;;;;;-6.98;94.92;102752.59;5027288;28;20113;-62
2024/01/10 03:28:20;;;;;;;6.17;3.00;;;;;;;-6.99;95.35;102761.78;5027078;28;20522;-62
2024/01/10 03:30:46;;;;;;;4.27;2.93;;;;;;;-6.99;95.81;102761.78;5026851;28;20108;-63
2024/01/10 03:33:11;;;;;;;4.03;2.73;;;;;;;-7.00;95.20;102759.94;5026678;28;20108;-62
2024/01/10 03:35:36;;;;;;;4.97;3.50;;;;;;;-7.01;95.16;102758.13;5027075;28;20100;-62
2024/01/10 03:38:01;;;;;;;5.07;3.27;;;;;;;-7.02;94.96;102743.72;5025839;28;20061;-62
2024/01/10 03:40:27;;;;;;;4.53;3.23;;;;;;;-7.01;95.77;102753.09;5026811;28;20055;-62
2024/01/10 03:42:52;;;;;;;5.33;3.07;;;;;;;-6.99;96.00;102745.72;5026229;28;20029;-62
2024/01/10 03:45:20;;;;;;;5.13;3.10;;;;;;;-6.99;95.27;102746.66;5027144;28;20385;-62
2024/01/10 03:47:49;;;;;;;5.30;3.00;;;;;;;-6.98;95.15;102737.47;5026722;28;20017;-62
2024/01/10 03:50:15;;;;;;;5.30;3.20;;;;;;;-6.98;95.38;102732.44;5026335;28;20083;-62
2024/01/10 03:52:40;;;;;;;5.27;3.57;;;;;;;-6.99;95.20;102739.09;5025944;28;20049;-62
2024/01/10 03:55:05;;;;;;;5.43;3.70;;;;;;;-6.99;96.48;102734.03;5026329;28;20037;-62
2024/01/10 03:57:31;;;;;;;7.43;3.50;;;;;;;-7.00;95.78;102728.81;5026316;28;20018;-62
2024/01/10 03:59:56;;;;;;;7.40;3.40;;;;;;;-7.00;96.30;102728.81;5026763;28;20072;-62
2024/01/10 04:02:21;;;;;;;5.00;3.03;;;;;;;-7.00;96.33;102728.81;5025940;28;20056;-63
2024/01/10 04:04:46;;;;;;;7.23;4.03;;;;;;;-7.01;95.76;102722.84;5026800;28;20335;-63
2024/01/10 04:07:12;;;;;;;4.40;3.23;;;;;;;-7.01;95.39;102721.91;5026275;28;20056;-62
2024/01/10 04:09:37;;;;;;;6.03;3.40;;;;;;;-6.99;95.50;102728.09;5026465;28;20112;-63
2024/01/10 04:12:02;;;;;;;4.10;3.27;;;;;;;-7.00;95.24;102722.13;5026327;28;20022;-62
2024/01/10 04:14:28;;;;;;;6.10;3.57;;;;;;;-6.99;95.02;102721.44;5026086;28;20477;-62
2024/01/10 04:16:54;;;;;;;5.57;3.47;;;;;;;-7.00;95.11;102713.66;5026399;28;20021;-62
2024/01/10 04:19:19;;;;;;;6.17;3.40;;;;;;;-6.97;95.47;102718.19;5026766;28;20021;-62
2024/01/10 04:21:44;;;;;;;5.73;3.40;;;;;;;-6.96;95.51;102720.03;5025801;28;20053;-62
2024/01/10 04:24:09;;;;;;;5.13;3.30;;;;;;;-6.99;95.58;102721.44;5026865;28;20397;-62
2024/01/10 04:26:35;;;;;;;5.93;3.47;;;;;;;-6.97;95.46;102718.19;5026104;28;20461;-62
2024/01/10 04:29:00;;;;;;;5.20;3.47;;;;;;;-6.99;95.67;102711.34;5026327;28;20083;-63
2024/01/10 04:31:25;;;;;;;6.57;3.37;;;;;;;-6.99;96.15;102715.47;5026247;28;20017;-62
2024/01/10 04:33:51;;;;;;;7.30;4.20;;;;;;;-7.00;95.96;102724.66;5026073;28;20057;-63
2024/01/10 04:36:16;;;;;;;6.37;3.17;;;;;;;-7.02;96.20;102721.03;5026229;28;20096;-62
2024/01/10 04:38:41;;;;;;;6.00;3.70;;;;;;;-7.02;96.61;102716.00;5026705;28;20063;-62
2024/01/10 04:41:06;;;;;;;4.23;3.07;;;;;;;-7.01;96.04;102715.28;5025956;28;20087;-62
2024/01/10 04:43:32;;;;;;;5.60;3.17;;;;;;;-7.03;96.10;102719.19;5026061;28;20436;-63
2024/01/10 04:45:57;;;;;;;5.50;3.37;;;;;;;-7.01;96.21;102717.78;5026202;28;20029;-63
2024/01/10 04:48:22;;;;;;;6.60;4.23;;;;;;;-7.01;95.76;102717.78;5026393;28;20037;-63
2024/01/10 04:50:48;;;;;;;6.60;3.57;;;;;;;-6.96;95.78;102730.13;5025851;28;20045;-63
2024/01/10 04:53:13;;;;;;;3.93;3.07;;;;;;;-6.97;95.67;102723.25;5026154;28;20025;-62
2024/01/10 04:55:38;;;;;;;5.43;3.10;;;;;;;-6.97;95.96;102714.06;5026030;28;20033;-62
2024/01/10 04:58:04;;;;;;;4.97;3.27;;;;;;;-6.98;96.20;102712.28;5025573;28;20095;-62
2024/01/10 05:00:29;;;;;;;6.83;3.97;;;;;;;-7.00;96.55;102709.50;5025831;28;20461;-62
2024/01/10 05:02:55;;;;;;;5.40;3.70;;;;;;;-7.01;96.81;102702.66;5029179;28;20029;-62
2024/01/10 05:05:23;;;;;;;7.17;3.53;;;;;;;-7.01;96.08;102707.72;5029585;28;20044;-62
2024/01/10 05:07:49;;;;;;;4.50;3.20;;;;;;;-7.02;97.01;102710.94;5029720;28;20601;-62
2024/01/10 05:10:14;;;;;;;6.00;3.67;;;;;;;-7.01;96.89;102712.75;5029392;28;20017;-62
2024/01/10 05:12:40;;;;;;;4.73;3.20;;;;;;;-7.04;96.57;102709.84;5029549;28;20038;-62
2024/01/10 05:15:06;;;;;;;4.60;3.10;;;;;;;-7.05;97.16;102704.59;5029181;28;20025;-62
2024/01/10 05:17:31;;;;;;;6.27;3.50;;;;;;;-7.05;96.89;102707.13;5029831;28;20028;-62
2024/01/10 05:19:56;;;;;;;4.73;3.30;;;;;;;-7.07;97.43;102706.91;5029472;28;20535;-62
2024/01/10 05:22:22;;;;;;;4.77;3.43;;;;;;;-7.06;97.87;102713.75;5029095;28;20244;-62
2024/01/10 05:24:47;;;;;;;5.53;3.37;;;;;;;-7.07;97.51;102703.47;5029604;28;20022;-62
2024/01/10 05:27:12;;;;;;;6.23;3.67;;;;;;;-7.08;98.03;102705.06;5029318;28;20519;-62
2024/01/10 05:29:38;;;;;;;5.40;3.50;;;;;;;-7.09;97.57;102713.34;5029399;28;20044;-62
2024/01/10 05:32:03;;;;;;;8.10;3.83;;;;;;;-7.09;98.05;102708.31;5029169;28;20583;-62
2024/01/10 05:34:29;;;;;;;4.30;3.13;;;;;;;-7.09;98.59;102712.44;5028885;28;20029;-62
2024/01/10 05:36:54;;;;;;;5.10;3.40;;;;;;;-7.09;97.86;102707.41;5029668;28;20021;-62
2024/01/10 05:39:20;;;;;;;6.10;3.73;;;;;;;-7.10;98.00;102706.47;5028940;28;20471;-62
2024/01/10 05:41:45;;;;;;;6.03;4.00;;;;;;;-7.11;98.36;102707.19;5028560;28;20041;-62
2024/01/10 05:44:11;;;;;;;5.60;3.53;;;;;;;-7.09;98.49;102704.88;5029216;28;20031;-62
2024/01/10 05:46:36;;;;;;;6.57;3.83;;;;;;;-7.12;98.50;102705.34;5028228;28;20041;-62
2024/01/10 05:49:04;;;;;;;8.20;3.77;;;;;;;-7.13;99.39;102706.06;5028799;28;20072;-62
2024/01/10 05:51:29;;;;;;;6.27;3.50;;;;;;;-7.14;99.36;102709.31;5028897;28;20018;-62
2024/01/10 05:53:54;;;;;;;5.87;3.63;;;;;;;-7.15;99.32;102712.53;5029148;28;20063;-62
2024/01/10 05:56:20;;;;;;;5.90;3.97;;;;;;;-7.15;99.31;102717.56;5028847;28;20203;-62
2024/01/10 05:58:45;;;;;;;5.33;3.50;;;;;;;-7.19;98.96;102715.31;5028246;28;20455;-62
2024/01/10 06:01:10;;;;;;;7.37;4.47;;;;;;;-7.19;99.52;102710.28;5028913;28;20072;-62
2024/01/10 06:03:36;;;;;;;5.13;3.80;;;;;;;-7.21;99.46;102706.69;5028488;28;20120;-62
2024/01/10 06:06:01;;;;;;;8.43;3.70;;;;;;;-7.23;100.00;102704.84;5028530;28;20177;-63
2024/01/10 06:08:28;;;;;;;7.73;4.20;;;;;;;-7.21;99.62;102697.47;5028343;28;20679;-62
2024/01/10 06:10:54;;;;;;;4.90;3.53;;;;;;;-7.23;100.00;102702.31;5028548;28;20021;-62
2024/01/10 06:13:19;;;;;;;7.33;3.83;;;;;;;-7.24;100.00;102705.56;5028534;28;20033;-62
2024/01/10 06:15:44;;;;;;;5.23;3.73;;;;;;;-7.25;100.00;102701.19;5028315;28;20023;-62
2024/01/10 06:18:10;;;;;;;6.93;3.83;;;;;;;-7.25;100.00;102697.78;5027296;28;20474;-62
2024/01/10 06:20:37;;;;;;;5.80;3.67;;;;;;;-7.26;100.00;102695.97;5014711;28;20533;-62
2024/01/10 06:23:03;;;;;;;6.07;3.87;;;;;;;-7.28;100.00;102690.72;5025889;28;20041;-62
2024/01/10 06:25:29;;;;;;;5.70;3.43;;;;;;;-7.30;100.00;102693.75;5025907;28;20013;-62
2024/01/10 06:27:54;;;;;;;5.60;3.53;;;;;;;-7.29;100.00;102693.97;5025263;28;20025;-62
2024/01/10 06:30:20;;;;;;;6.20;3.77;;;;;;;-7.29;100.00;102686.41;5016285;28;20036;-62
2024/01/10 06:32:45;;;;;;;5.80;3.63;;;;;;;-7.32;100.00;102693.53;5025144;28;20113;-62
2024/01/10 06:35:10;;;;;;;6.60;4.17;;;;;;;-7.32;100.00;102701.06;5029115;28;20485;-62
2024/01/10 06:37:37;;;;;;;5.87;3.47;;;;;;;-7.31;100.00;102699.47;5029762;28;20079;-62
2024/01/10 06:40:04;;;;;;;8.63;4.20;;;;;;;-7.35;100.00;102703.19;5026047;28;20108;-62
2024/01/10 06:42:29;;;;;;;5.57;3.80;;;;;;;-7.39;100.00;102708.50;5027397;28;20021;-62
2024/01/10 06:44:55;;;;;;;5.37;3.47;;;;;;;-7.40;100.00;102700.06;5027959;28;20385;-62
2024/01/10 06:47:21;;;;;;;6.13;3.93;;;;;;;-7.38;100.00;102708.75;5025311;28;20075;-62
2024/01/10 06:49:46;;;;;;;4.53;3.10;;;;;;;-7.40;100.00;102710.16;5025705;28;20058;-62
2024/01/10 06:52:11;;;;;;;5.87;3.57;;;;;;;-7.40;100.00;102712.66;5025516;28;20029;-62
2024/01/10 06:54:37;;;;;;;7.30;4.07;;;;;;;-7.39;100.00;102711.03;5035203;28;20089;-62
2024/01/10 06:57:02;;;;;;;8.37;4.37;;;;;;;-7.40;100.00;102709.22;5024593;28;20543;-62
2024/01/10 06:59:28;;;;;;;6.07;3.87;;;;;;;-7.44;100.00;102707.00;5025088;28;20025;-62
2024/01/10 07:01:55;;;;;;;5.30;3.33;;;;;;;-7.48;100.00;102709.09;5036127;28;20032;-62
2024/01/10 07:04:23;;;;;;;6.50;4.27;;;;;;;-7.44;100.00;102707.00;5033045;28;20403;-62
2024/01/10 07:06:49;;;;;;;5.77;3.80;;;;;;;-7.44;100.00;102709.50;5043789;28;20469;-62
2024/01/10 07:09:19;;;;;;;7.37;4.40;;;;;;;-7.45;100.00;102705.19;5025302;28;20021;-62
2024/01/10 07:11:47;;;;;;;6.47;4.07;;;;;;;-7.44;100.00;102717.06;5029970;28;20029;-62
2024/01/10 07:14:14;;;;;;;6.23;3.63;;;;;;;-7.44;100.00;102717.06;5032974;28;20036;-61
2024/01/10 07:16:42;;;;;;;6.20;4.20;;;;;;;-7.46;100.00;102721.91;5035669;28;20033;-62
2024/01/10 07:19:08;;;;;;;6.77;4.17;;;;;;;-7.47;100.00;102717.59;5026658;28;20025;-62
2024/01/10 07:21:33;;;;;;;9.63;4.20;;;;;;;-7.48;100.00;102710.72;5035210;28;20838;-62
2024/01/10 07:23:59;;;;;;;6.43;4.00;;;;;;;-7.49;100.00;102704.78;5023554;28;20116;-62
2024/01/10 07:26:24;;;;;;;8.03;4.60;;;;;;;-7.47;100.00;102708.44;5028328;28;20432;-62
2024/01/10 07:28:50;;;;;;;6.63;4.30;;;;;;;-7.48;100.00;102709.09;5030843;28;20036;-62
2024/01/10 07:31:15;;;;;;;5.73;3.90;;;;;;;-7.49;100.00;102709.81;5031894;28;20358;-62
2024/01/10 07:33:41;;;;;;;6.87;3.83;;;;;;;-7.48;100.00;102710.72;5023907;28;20472;-61
2024/01/10 07:36:07;;;;;;;5.00;3.27;;;;;;;-7.49;100.00;102694.72;5025242;28;20107;-62
2024/01/10 07:38:32;;;;;;;6.47;5.07;;;;;;;-7.50;100.00;102702.06;5026192;28;20104;-62
2024/01/10 07:40:59;;;;;;;8.73;4.67;;;;;;;-7.49;100.00;102706.38;5025650;28;20527;-62
2024/01/10 07:43:24;;;;;;;5.93;4.00;;;;;;;-7.49;100.00;102696.31;5026090;28;20025;-62
2024/01/10 07:45:50;;;;;;;6.43;4.10;;;;;;;-7.48;100.00;102701.53;5026369;28;20079;-62
2024/01/10 07:48:15;;;;;;;7.60;4.10;;;;;;;-7.48;100.00;102695.59;5026822;28;20028;-63
2024/01/10 07:50:41;;;;;;;6.30;3.97;;;;;;;-7.50;100.00;102692.88;5025343;28;20049;-62
2024/01/10 07:53:07;;;;;;;6.43;3.87;;;;;;;-7.49;100.00;102697.22;5026961;28;20257;-62
2024/01/10 07:55:32;;;;;;;5.63;4.40;;;;;;;-7.52;100.00;102699.31;5026631;28;20036;-62
2024/01/10 07:57:58;;;;;;;8.47;4.93;;;;;;;-7.52;100.00;102698.41;5026328;28;20470;-62
2024/01/10 08:00:23;;;;;;;7.50;4.20;;;;;;;-7.51;100.00;102700.22;5026382;28;20049;-62
2024/01/10 08:02:51;;;;;;;7.53;4.57;;;;;;;-7.51;100.00;102706.19;5026718;28;20034;-62
2024/01/10 08:05:16;;;;;;;9.07;4.73;;;;;;;-7.49;100.00;102704.78;5026677;28;20052;-62
2024/01/10 08:07:42;;;;;;;8.77;4.83;;;;;;;-7.48;100.00;102698.09;5026827;28;20017;-62
2024/01/10 08:10:09;;;;;;;7.87;4.33;;;;;;;-7.48;100.00;102701.53;5026023;28;20109;-62
2024/01/10 08:12:35;;;;;;;7.87;4.50;;;;;;;-7.47;100.00;102702.47;5026527;28;20025;-62
2024/01/10 08:15:00;;;;;;;6.33;4.47;;;;;;;-7.45;100.00;102705.19;5025658;28;20034;-62
2024/01/10 08:17:26;;;;;;;6.97;4.50;;;;;;;-7.41;100.00;102709.94;5026433;28;20104;-62
2024/01/10 08:19:51;;;;;;;9.07;4.70;;;;;;;-7.41;100.00;102708.31;5025949;28;20092;-62
2024/01/10 08:22:17;;;;;;;7.10;4.67;;;;;;;-7.39;100.00;102719.50;5025088;28;20390;-63
2024/01/10 08:24:45;;;;;;;8.40;5.03;;;;;;;-7.36;100.00;102714.00;5021321;28;20037;-62
2024/01/10 08:27:10;;;;;;;8.03;4.77;;;;;;;-7.35;100.00;102714.19;5026713;28;20025;-62
2024/01/10 08:29:35;;;;;;;7.10;4.30;;;;;;;-7.32;100.00;102721.25;5026298;28;20045;-62
2024/01/10 08:32:00;;;;;;;7.73;5.10;;;;;;;-7.33;100.00;102727.00;5026121;28;20033;-62
2024/01/10 08:34:26;;;;;;;8.13;5.17;;;;;;;-7.29;100.00;102720.75;5025802;28;20029;-62
2024/01/10 08:36:52;;;;;;;8.30;4.80;;;;;;;-7.28;100.00;102715.91;5029344;28;20531;-62
2024/01/10 08:39:18;;;;;;;9.53;4.70;;;;;;;-7.25;100.00;102726.41;5029366;28;20029;-62
2024/01/10 08:41:44;;;;;;;8.20;4.97;;;;;;;-7.21;100.00;102717.66;5029654;28;20199;-62
2024/01/10 08:44:12;;;;;;;8.73;5.63;;;;;;;-7.14;100.00;102719.41;5029829;28;20454;-63
2024/01/10 08:46:37;;;;;;;6.47;4.37;;;;;;;-7.07;100.00;102721.13;5029186;28;20478;-62
2024/01/10 08:49:03;;;;;;;9.50;4.97;;;;;;;-6.96;100.00;102715.00;5029396;28;20068;-62
2024/01/10 08:51:28;;;;;;;7.27;5.00;;;;;;;-6.83;100.00;102723.47;5020560;28;20032;-62
2024/01/10 08:53:53;;;;;;;8.83;4.87;;;;;;;-6.60;100.00;102717.13;5036231;28;20136;-62
2024/01/10 08:56:20;;;;;;;6.90;4.97;;;;;;;-6.09;100.00;102718.69;5029128;28;20040;-62
2024/01/10 08:58:45;;;;;;;7.33;4.97;;;;;;;-5.75;96.88;102729.66;5032837;28;20033;-62
2024/01/10 09:01:11;;;;;;;7.80;4.73;;;;;;;-5.55;92.99;102721.22;5034256;28;20374;-62
2024/01/10 09:03:37;;;;;;;7.57;4.80;;;;;;;-5.36;92.49;102723.56;5038543;28;20120;-62
2024/01/10 09:06:03;;;;;;;9.07;5.30;;;;;;;-5.31;90.87;102725.06;5034520;28;20030;-61
2024/01/10 09:08:29;;;;;;;8.37;5.50;;;;;;;-5.42;89.38;102723.69;5033981;28;20037;-62
2024/01/10 09:10:56;;;;;;;9.00;5.73;;;;;;;-5.43;90.05;102727.81;5027600;28;20033;-62
2024/01/10 09:13:21;;;;;;;7.90;5.63;;;;;;;-5.54;90.09;102726.44;5027958;28;20033;-62
2024/01/10 09:15:46;;;;;;;8.97;5.23;;;;;;;-5.70;89.20;102727.75;5029058;28;20091;-63
2024/01/10 09:18:12;;;;;;;8.17;5.83;;;;;;;-5.78;89.73;102725.16;5026647;28;20337;-61
2024/01/10 09:20:37;;;;;;;7.77;5.37;;;;;;;-5.91;90.78;102736.88;5029514;28;20175;-61
2024/01/10 09:23:03;;;;;;;8.00;5.50;;;;;;;-5.92;91.69;102725.88;5037635;28;20435;-62
2024/01/10 09:25:28;;;;;;;8.97;5.60;;;;;;;-5.91;92.20;102732.75;5041272;28;20055;-63
2024/01/10 09:27:54;;;;;;;9.00;5.63;;;;;;;-5.95;92.86;102734.66;5032903;28;20032;-62
2024/01/10 09:30:19;;;;;;;11.50;6.43;;;;;;;-5.97;91.29;102737.00;5033825;28;20033;-61
2024/01/10 09:32:45;;;;;;;9.53;5.83;;;;;;;-5.94;91.33;102736.50;5040228;28;20028;-62
2024/01/10 09:35:11;;;;;;;9.47;5.60;;;;;;;-6.02;90.77;102733.88;5035037;28;20034;-61
2024/01/10 09:37:36;;;;;;;12.57;7.17;;;;;;;-5.99;90.79;102735.88;5040360;28;20039;-62
2024/01/10 09:40:02;;;;;;;9.73;6.00;;;;;;;-6.07;90.41;102731.50;5035700;28;20029;-62
2024/01/10 09:42:31;;;;;;;9.77;6.10;;;;;;;-6.03;89.99;102742.16;5041857;28;20401;-62
2024/01/10 09:44:57;;;;;;;11.37;5.80;;;;;;;-6.03;90.34;102737.09;5038736;28;20036;-62
2024/01/10 09:47:23;;;;;;;10.20;6.20;;;;;;;-6.01;90.64;102734.81;5035203;28;20029;-62
2024/01/10 09:49:48;;;;;;;10.43;6.10;;;;;;;-5.96;91.22;102730.34;5028589;28;20244;-62
2024/01/10 09:52:24;;;;;;;9.90;6.43;;;;;;;-5.92;92.12;102740.13;5028124;28;20018;-62
2024/01/10 09:54:54;;;;;;;10.10;6.73;;;;;;;-5.85;89.33;102739.31;5028782;28;20022;-62
2024/01/10 09:57:23;;;;;;;11.47;6.57;;;;;;;-5.81;89.64;102749.09;5028540;28;20026;-62
2024/01/10 09:59:51;;;;;;;9.80;5.83;;;;;;;-5.71;89.02;102753.72;5028780;28;20029;-62
2024/01/10 10:02:18;;;;;;;10.17;6.60;;;;;;;-5.75;86.32;102765.03;5027744;28;20055;-63
2024/01/10 10:05:09;;;;;;;8.87;5.80;;;;;;;-5.73;85.81;102752.59;5028582;28;20474;-62
2024/01/10 10:07:46;;;;;;;9.68;6.45;;;;;;;-5.66;85.77;102746.03;5028089;28;20528;-62
2024/01/10 10:10:15;;;;;;;9.40;6.67;;;;;;;-5.63;85.84;102739.53;5027345;28;20061;-62
2024/01/10 10:12:47;;;;;;;10.50;6.13;;;;;;;-5.54;86.47;102746.66;5028567;28;20025;-62
2024/01/10 10:15:18;;;;;;;10.43;6.43;;;;;;;-5.49;85.38;102741.31;5028134;28;20025;-63
2024/01/10 10:17:48;;;;;;;10.73;7.10;;;;;;;-5.40;85.84;102739.03;5020353;28;20032;-62
2024/01/10 10:20:21;;;;;;;11.67;7.00;;;;;;;-5.28;85.30;102742.22;5026846;28;20037;-62
2024/01/10 10:23:04;;;;;;;10.93;6.30;;;;;;;-5.22;84.45;102743.91;5028430;28;20140;-62
2024/01/10 10:25:34;;;;;;;10.33;6.33;;;;;;;-5.16;82.97;102746.28;5027524;28;20037;-62
2024/01/10 10:28:01;;;;;;;11.17;7.13;;;;;;;-5.10;82.77;102746.16;5028437;28;20651;-61
2024/01/10 10:30:26;;;;;;;10.87;6.37;;;;;;;-5.03;83.99;102743.69;5028441;28;20540;-62
2024/01/10 10:32:53;;;;;;;10.10;6.47;;;;;;;-4.99;82.14;102739.94;5027055;28;20104;-62
2024/01/10 10:35:19;;;;;;;10.20;6.53;;;;;;;-4.95;81.89;102732.03;5018921;28;20076;-62
2024/01/10 10:37:45;;;;;;;10.93;6.57;;;;;;;-4.90;81.19;102733.50;5024907;28;20031;-62
2024/01/10 10:40:11;;;;;;;12.23;8.70;;;;;;;-4.92;80.92;102723.88;5028241;28;20112;-62
2024/01/10 10:42:43;;;;;;;12.10;8.07;;;;;;;-4.85;81.66;102724.84;5026325;28;20091;-63
2024/01/10 10:45:14;;;;;;;12.23;8.30;;;;;;;-4.79;80.18;102724.72;5027030;28;20033;-62
2024/01/10 10:47:44;;;;;;;11.32;6.85;;;;;;;-4.72;79.43;102723.84;5027706;28;20116;-62
2024/01/10 10:50:14;;;;;;;13.00;7.70;;;;;;;-4.64;79.46;102729.88;5027517;28;20041;-62
2024/01/10 10:52:44;;;;;;;12.03;7.33;;;;;;;-4.60;80.78;102725.38;5027587;28;20030;-62
2024/01/10 10:55:11;;;;;;;13.15;7.43;;;;;;;-4.52;81.51;102730.47;5027677;28;20053;-63
2024/01/10 10:57:37;;;;;;;10.53;7.13;;;;;;;-4.47;81.83;102724.34;5027905;28;20381;-64
2024/01/10 11:00:07;;;;;;;13.40;7.80;;;;;;;-4.43;80.62;102721.50;5025774;28;20029;-63
2024/01/10 11:02:32;;;;;;;11.33;7.23;;;;;;;-4.36;80.82;102725.69;5027051;28;20528;-62
2024/01/10 11:04:59;;;;;;;13.23;8.03;;;;;;;-4.28;78.06;102719.03;5026211;28;20071;-64
2024/01/10 11:07:24;;;;;;;11.90;7.37;;;;;;;-4.22;78.56;102722.31;5025531;28;20025;-63
2024/01/10 11:09:51;;;;;;;13.23;8.77;;;;;;;-4.15;79.45;102726.50;5025405;28;20588;-63
2024/01/10 11:12:55;;;;;;;14.80;8.57;;;;;;;-4.08;79.40;102723.97;5025465;28;20025;-64
2024/01/10 11:16:08;;;;;;;15.67;9.30;;;;;;;-4.02;76.76;102718.75;5025885;28;20090;-63
2024/01/10 11:18:58;;;;;;;13.40;8.77;;;;;;;-3.93;75.30;102719.88;5023116;28;20033;-63